Airfield :
LOGIN :

Register | Disclaimer

   EN    FR    IT 

 










Legend :    VFR   Marginal VFR   IFR   Intensive IFR   Very Intensive IFR
Visi :
Ceiling :
>= 8 km
>= 3000ft
5 to 8 km
1000 to 3000 ft
1500m to 5 km
500 to 1000 ft
800 to 1500m
200 to 500 ft
< 800m
< 200 ft
Symbols :   Thunderstorms  Fog  Heavy snow  Heavy precipitations  Wind > 20 kt
SIGMETs :     Misc.  Thunderstorms  Icing  Turbulence  Mountain Waves  Volcanic Ashes






- Airport Elevation : 1115 ft
- IATA code : GRZ


LOWG - Graz

CURRENT METAR :
  • 171120Z AUTO 26004KT 210V330 9999 FEW022 SCT050 BKN070 10/04 Q1005 NOSIG

EXPIRED METARs :
  • 171050Z AUTO VRB04KT 9999 FEW015 BKN080 10/05 Q1005 NOSIG
  • 171020Z AUTO VRB05KT 9999 FEW012 SCT020 BKN030 09/05 Q1005 NOSIG
  • 170950Z AUTO 18005KT 110V240 9999 FEW018 SCT022 BKN080 10/06 Q1005 NOSIG
  • 170920Z AUTO 24006KT 200V290 9999 FEW020 SCT024 BKN050 09/04 Q1005 NOSIG
  • 170850Z AUTO 18005KT 150V240 9999 FEW019 BKN070 10/06 Q1005 NOSIG
  • 170820Z AUTO VRB04KT 9999 FEW042 SCT070 09/05 Q1005 NOSIG
  • 170750Z AUTO VRB04KT 9999 FEW014 08/04 Q1005 NOSIG
  • 170720Z AUTO VRB01KT 9999 FEW060 BKN070 08/04 Q1005 NOSIG
  • 170650Z AUTO VRB01KT 9999 FEW005 BKN070 07/03 Q1005 NOSIG

TAF TAF LOWG
Valid from the 17 at 12:00 until the 18 at 12:00 UTC


171115Z 1712/1812 VRB05KT 9999 SCT030 BKN050 TX11/1712Z TN02/1804Z
TEMPO 1712/1719 30012KT -SHRA FEW030CB BKN040
PROB30
TEMPO 1803/1806 0700 BCFG
TEMPO 1809/1812 -SHRA FEW030CB BKN040
PROB30
TEMPO 1809/1812 VRB15KT TSRA



MET'MAP, your aeronautical weather chart ! - Copyright ORBIFLY December 2007 - Disclaimer

ORBIFLY MET'MAP TEAM :

Programming & Development : Alexandra Zaïnal
Original concept : Baudouin d'Aumeries
Technical & hardware support : Manuel Goepfert
Assistance : Marc-Olivier Méhu




SOURCES & CREDITS :

   NOAA